Shell Beach, Louisiana
Current Conditions -  °F | °C
As of 9:55 AM on Saturday 25 Oct 2014 (Local Time) from KNBG Reporting Station
Few Clouds Few Clouds  
Wind Chill: 69°   Ceiling: Unl
Heat Index: 69°   Visibility: 10mi
Dew Point: 52°   Wind: 7mph
Humidity: 54%   Direction: 40°NE
Pressure: 30.16"   Gusts: NA
Location:  29.8369°N, 89.7702°W
Report Text: KNBG 251455Z COR 04006KT 10SM FEW020 21/11 A3016 RMK AO2 FU FEW020 SLP212 T02060111 51013 $
Loading
Personal Weather Stations






























Interactive Weather Map
Tropical Storm Tracking
New forecast layout! Learn more

10-Day Weather Forecast

Advertisements
Track Severe Weather on mobile